Details From ESSA - Stockholm Arlanda
To GCGM - La Gomera
Flight Number -
Tags Generated
Created
Modified
Stats Distance 2,380 nm / 4,408 km
Max Altitude 0 ft / 0 m
Waypoints 8
Social Downloads 1
Likes 0
Share VATSIM

Download

Looking for another format? Having issues loading an existing format? Contact us
Advertisement - Login to hide

Notes

Generated

Route

ESSA RANAV LUTIR EH179 R2103 KANDA LGM GCGM

ID Type Via Altitude Latitude Longitude Leg Dist Tot Dist Heading (true) Name
O ESSA APT - 0 ft / 0 m 59.62640˚ 17.95074˚ - 0 nm - -
RANAV FIX - 0 ft / 0 m 57.18569˚ 12.33431˚ 229 nm 229 nm 233° / 228° -
LUTIR FIX - 0 ft / 0 m 55.06417˚ 8.41611˚ 182 nm 412 nm 227° / 224° -
EH179 FIX - 0 ft / 0 m 52.17472˚ 3.87722˚ 237 nm 649 nm 225° / 221° -
R2103 FIX - 0 ft / 0 m 49.36179˚ 0.16479˚ 219 nm 869 nm 221° / 218° -
KANDA FIX - 0 ft / 0 m 43.77061˚ -5.79740˚ 416 nm 1285 nm 218° / 214° -
LGM VOR - 0 ft / 0 m 28.02874˚ -17.21487˚ 1094 nm 2379 nm 214° / 207° LA GOMERA VOR-DME
O GCGM APT - 0 ft / 0 m 28.02859˚ -17.22214˚ 0 nm 2379 nm 269° / 269° -

Altitude Profile

Advertisement - Login to hide

Weather


0- 5 10 15 20 25 30 35+ Temperature / ° C

Clouds and Precipitation
Forecast for 2018-05-26 06:00 UTC. Updated 6 hours ago

Ground ~20,000 ft ~40,000 ft Winds

ESSA

Details ICAO ESSA (ARN)
Name Stockholm Arlanda
Region Sweden
Timezone Europe/Stockholm (UTC+2.0)
Stats Elevation 137 ft / 42 m (AMSL)
Location 59.650140° 17.943628°
Runways 3
Magnetic Variation 6.173° E

METAR

ESSA 261020Z 15004KT 120V220 CAVOK 22/02 Q1028 NOSIG

Decode

TAF

TAF ESSA 260530Z 2606/2706 13003KT CAVOK

Decode

Departure Runways

ID Width Length Bearing (true) Bearing (mag) Surface Threshold Offset Overrun Length
01L 148 ft / 45 m 10,812 ft / 3,296 m 10.35° 4.18° Concrete 0 ft / 0 m 0 ft / 0 m
01R 148 ft / 45 m 8,188 ft / 2,496 m 10.38° 4.21° Asphalt 0 ft / 0 m 0 ft / 0 m
08 148 ft / 45 m 8,178 ft / 2,493 m 75.83° 69.66° Concrete 0 ft / 0 m 0 ft / 0 m
19L 148 ft / 45 m 8,188 ft / 2,496 m 190.39° 184.22° Asphalt 0 ft / 0 m 0 ft / 0 m
19R 148 ft / 45 m 10,812 ft / 3,296 m 190.36° 184.19° Concrete 0 ft / 0 m 0 ft / 0 m
26 148 ft / 45 m 8,178 ft / 2,493 m 255.87° 249.70° Concrete 0 ft / 0 m 0 ft / 0 m

GCGM

Details ICAO GCGM (GMZ)
Name La Gomera
Region Canary Islands
Timezone Atlantic/Canary (UTC+1.0)
Stats Elevation 715 ft / 218 m (AMSL)
Location 28.029627° -17.214603°
Runways 1
Magnetic Variation 5.307° W

METAR

GCGM 261030Z VRB06G16KT 9999 SCT040 20/11 Q1019 RMK R09/24004KT 180V310 ARP/29004KT

Decode

TAF

TAF GCGM 260800Z 2609/2709 VRB06KT 9999 SCT045 TX23/2614Z TN16/2705Z TEMPO 2609/2622 36010KT

Decode

Destination Runways

ID Width Length Bearing (true) Bearing (mag) Surface Threshold Offset Overrun Length
09 98 ft / 30 m 4,914 ft / 1,498 m 81.17° 86.48° Asphalt 0 ft / 0 m 0 ft / 0 m
27 98 ft / 30 m 4,914 ft / 1,498 m 261.18° 266.49° Asphalt 0 ft / 0 m 0 ft / 0 m